createdAt,value
2019-01-03T00:02:10.975Z,96829.00
2019-01-03T00:05:05.875Z,96832.00
2019-01-03T00:08:04.128Z,96837.00
2019-01-03T00:10:59.106Z,96850.00
2019-01-03T00:13:46.703Z,96855.00
2019-01-03T00:16:38.316Z,96856.00
2019-01-03T00:19:39.369Z,96858.00
2019-01-03T00:22:38.512Z,96859.00
2019-01-03T00:25:33.526Z,96855.00
2019-01-03T00:28:35.905Z,96853.00
2019-01-03T00:31:20.410Z,96859.00
2019-01-03T00:34:07.863Z,96863.00
2019-01-03T00:36:56.847Z,96866.00
2019-01-03T00:39:45.866Z,96854.00
2019-01-03T00:42:37.788Z,96858.00
2019-01-03T00:45:20.855Z,96874.00
2019-01-03T00:48:08.026Z,96879.00
2019-01-03T00:50:47.196Z,96887.00
2019-01-03T00:53:37.470Z,96900.00
2019-01-03T00:56:28.035Z,96892.00
2019-01-03T00:59:15.401Z,96894.00
2019-01-03T01:02:03.582Z,96892.00
2019-01-03T01:04:51.133Z,96902.00
2019-01-03T01:07:52.239Z,96913.00
2019-01-03T01:10:39.249Z,96905.00
2019-01-03T01:13:40.022Z,96891.00
2019-01-03T01:16:23.512Z,96910.00
2019-01-03T01:19:11.452Z,96912.00
2019-01-03T01:22:00.380Z,96919.00
2019-01-03T01:25:07.124Z,96917.00
2019-01-03T01:27:46.812Z,96919.00
2019-01-03T01:30:44.501Z,96931.00
2019-01-03T01:33:45.547Z,96927.00
2019-01-03T01:36:29.964Z,96929.00
2019-01-03T01:39:28.846Z,96937.00
2019-01-03T01:42:09.741Z,96930.00
2019-01-03T01:44:57.279Z,96951.00
2019-01-03T01:47:46.376Z,96937.00
2019-01-03T01:50:43.812Z,96930.00
2019-01-03T01:53:41.740Z,96942.00
2019-01-03T01:56:31.529Z,96934.00
2019-01-03T01:59:19.514Z,96954.00
2019-01-03T02:02:08.577Z,96930.00
2019-01-03T02:04:57.448Z,96936.00
2019-01-03T02:07:39.751Z,96952.00
2019-01-03T02:10:34.630Z,96957.00
2019-01-03T02:13:21.300Z,96949.00
2019-01-03T02:16:10.363Z,96966.00
2019-01-03T02:18:57.796Z,96959.00
2019-01-03T02:21:58.823Z,96956.00
2019-01-03T02:24:46.093Z,96957.00
2019-01-03T02:27:34.312Z,96952.00
2019-01-03T02:30:29.430Z,96945.00
2019-01-03T02:33:18.466Z,96942.00
2019-01-03T02:36:10.489Z,96953.00
2019-01-03T02:38:58.379Z,96956.00
2019-01-03T02:41:45.811Z,96957.00
2019-01-03T02:44:33.113Z,96961.00
2019-01-03T02:47:22.326Z,96954.00
2019-01-03T02:50:06.397Z,96953.00
2019-01-03T02:53:07.288Z,96955.00
2019-01-03T02:55:54.758Z,96963.00
2019-01-03T02:58:46.928Z,96957.00
2019-01-03T03:01:42.479Z,96964.00
2019-01-03T03:04:29.850Z,96954.00
2019-01-03T03:07:26.118Z,96958.00
2019-01-03T03:10:13.756Z,96956.00
2019-01-03T03:12:54.762Z,96950.00
2019-01-03T03:15:48.336Z,96953.00
2019-01-03T03:18:37.101Z,96951.00
2019-01-03T03:21:32.480Z,96944.00
2019-01-03T03:24:23.962Z,96948.00
2019-01-03T03:27:13.125Z,96959.00
2019-01-03T03:30:08.112Z,96947.00
2019-01-03T03:33:15.576Z,96946.00
2019-01-03T03:36:02.976Z,96936.00
2019-01-03T03:38:50.595Z,96948.00
2019-01-03T03:41:48.672Z,96957.00
2019-01-03T03:44:41.740Z,96960.00
2019-01-03T03:47:48.569Z,96951.00
2019-01-03T03:50:44.910Z,96962.00
2019-01-03T03:53:31.304Z,96959.00
2019-01-03T03:56:26.863Z,96954.00
2019-01-03T03:59:23.041Z,96957.00
2019-01-03T04:02:17.669Z,96949.00
2019-01-03T04:05:19.564Z,96962.00
2019-01-03T04:08:08.560Z,96948.00
2019-01-03T04:10:57.541Z,96946.00
2019-01-03T04:13:49.121Z,96943.00
2019-01-03T04:16:47.641Z,96940.00
2019-01-03T04:19:38.516Z,96939.00
2019-01-03T04:22:38.410Z,96928.00
2019-01-03T04:25:28.801Z,96931.00
2019-01-03T04:28:32.461Z,96941.00
2019-01-03T04:31:17.778Z,96919.00
2019-01-03T04:34:03.659Z,96928.00
2019-01-03T04:36:50.802Z,96912.00
2019-01-03T04:39:40.994Z,96914.00
2019-01-03T04:42:38.670Z,96911.00
2019-01-03T04:45:42.632Z,96918.00
2019-01-03T04:48:31.560Z,96910.00
2019-01-03T04:51:20.627Z,96918.00
2019-01-03T04:54:15.289Z,96915.00
2019-01-03T04:57:19.059Z,96921.00
2019-01-03T05:00:06.987Z,96929.00
2019-01-03T05:02:54.858Z,96933.00
2019-01-03T05:05:49.527Z,96943.00
2019-01-03T05:08:41.817Z,96939.00
2019-01-03T05:11:28.975Z,96935.00
2019-01-03T05:14:20.553Z,96940.00
2019-01-03T05:17:09.552Z,96946.00
2019-01-03T05:20:16.650Z,96945.00
2019-01-03T05:23:20.396Z,96951.00
2019-01-03T05:26:07.108Z,96958.00
2019-01-03T05:28:54.780Z,96973.00
2019-01-03T05:31:52.584Z,96969.00
2019-01-03T05:34:42.677Z,96962.00
2019-01-03T05:37:30.189Z,96962.00
2019-01-03T05:40:17.680Z,96976.00
2019-01-03T05:43:21.011Z,96966.00
2019-01-03T05:46:21.007Z,96976.00
2019-01-03T05:49:08.498Z,96987.00
2019-01-03T05:52:12.178Z,96986.00
2019-01-03T05:54:59.573Z,97000.00
2019-01-03T05:58:05.201Z,96996.00
2019-01-03T06:00:54.398Z,97009.00
2019-01-03T06:03:38.182Z,96975.00
2019-01-03T06:06:27.151Z,97003.00
2019-01-03T06:09:14.356Z,96996.00
2019-01-03T06:12:00.129Z,96992.00
2019-01-03T06:15:07.148Z,96993.00
2019-01-03T06:18:04.893Z,96982.00
2019-01-03T06:20:52.209Z,96985.00
2019-01-03T06:23:59.306Z,96990.00
2019-01-03T06:26:46.493Z,96998.00
2019-01-03T06:29:32.256Z,97008.00
2019-01-03T06:32:21.152Z,97004.00
2019-01-03T06:35:08.986Z,97010.00
2019-01-03T06:37:56.412Z,97006.00
2019-01-03T06:40:45.394Z,96998.00
2019-01-03T06:43:32.783Z,97009.00
2019-01-03T06:46:25.261Z,97004.00
2019-01-03T06:49:07.145Z,97023.00
2019-01-03T06:51:49.873Z,97030.00
2019-01-03T06:54:38.019Z,97032.00
2019-01-03T06:57:27.407Z,97036.00
2019-01-03T07:00:19.199Z,97036.00
2019-01-03T07:03:06.827Z,97035.00
2019-01-03T07:06:01.527Z,97052.00
2019-01-03T07:08:48.985Z,97054.00
2019-01-03T07:11:36.663Z,97060.00
2019-01-03T07:14:31.607Z,97050.00
2019-01-03T07:17:26.339Z,97050.00
2019-01-03T07:20:29.245Z,97049.00
2019-01-03T07:23:21.721Z,97060.00
2019-01-03T07:26:09.012Z,97053.00
2019-01-03T07:29:12.949Z,97050.00
2019-01-03T07:32:00.448Z,97044.00
2019-01-03T07:35:01.077Z,97051.00
2019-01-03T07:37:52.919Z,97042.00
2019-01-03T07:40:42.029Z,97039.00
2019-01-03T07:43:29.431Z,97050.00
2019-01-03T07:46:18.350Z,97051.00
2019-01-03T07:49:01.473Z,97059.00
2019-01-03T07:51:48.991Z,97063.00
2019-01-03T07:54:41.428Z,97062.00
2019-01-03T07:57:39.542Z,97076.00
2019-01-03T08:00:27.271Z,97078.00
2019-01-03T08:03:14.769Z,97081.00
2019-01-03T08:06:09.809Z,97080.00
2019-01-03T08:08:59.048Z,97079.00
2019-01-03T08:11:50.171Z,97087.00
2019-01-03T08:14:34.232Z,97081.00
2019-01-03T08:17:29.125Z,97080.00
2019-01-03T08:20:21.284Z,97076.00
2019-01-03T08:23:10.849Z,97064.00
2019-01-03T08:25:58.359Z,97072.00
2019-01-03T08:28:48.528Z,97093.00
2019-01-03T08:31:41.740Z,97079.00
2019-01-03T08:34:42.617Z,97074.00
2019-01-03T08:37:31.893Z,97089.00
2019-01-03T08:40:39.691Z,97078.00
2019-01-03T08:43:31.474Z,97087.00
2019-01-03T08:46:19.242Z,97078.00
2019-01-03T08:49:00.749Z,97084.00
2019-01-03T08:51:47.913Z,97090.00
2019-01-03T08:54:28.502Z,97082.00
2019-01-03T08:57:26.527Z,97087.00
2019-01-03T09:00:19.582Z,97086.00
2019-01-03T09:03:24.254Z,97087.00
2019-01-03T09:06:16.926Z,97089.00
2019-01-03T09:09:06.311Z,97078.00
2019-01-03T09:11:55.345Z,97080.00
2019-01-03T09:14:53.371Z,97074.00
2019-01-03T09:17:40.736Z,97103.00
2019-01-03T09:20:29.998Z,97094.00
2019-01-03T09:23:17.577Z,97091.00
2019-01-03T09:26:10.259Z,97102.00
2019-01-03T09:28:57.530Z,97102.00
2019-01-03T09:31:45.092Z,97095.00
2019-01-03T09:34:34.035Z,97101.00
2019-01-03T09:37:26.806Z,97092.00
2019-01-03T09:40:10.697Z,97090.00
2019-01-03T09:43:08.491Z,97097.00
2019-01-03T09:45:44.208Z,97081.00
2019-01-03T09:48:10.214Z,97084.00
2019-01-03T09:50:40.241Z,97090.00
2019-01-03T09:53:10.376Z,97092.00
2019-01-03T09:55:41.798Z,97078.00
2019-01-03T09:58:11.881Z,97068.00
2019-01-03T10:00:41.971Z,97061.00
2019-01-03T10:03:12.135Z,97085.00
2019-01-03T10:05:42.907Z,97079.00
2019-01-03T10:08:19.553Z,97070.00
2019-01-03T10:10:45.690Z,97063.00
2019-01-03T10:13:15.677Z,97063.00
2019-01-03T10:15:46.049Z,97064.00
2019-01-03T10:18:16.049Z,97054.00
2019-01-03T10:20:46.115Z,97053.00
2019-01-03T10:23:16.227Z,97065.00
2019-01-03T10:25:46.280Z,97063.00
2019-01-03T10:28:16.306Z,97065.00
2019-01-03T10:30:46.373Z,97066.00
2019-01-03T10:33:16.300Z,97070.00
2019-01-03T10:35:46.399Z,97053.00
2019-01-03T10:38:20.943Z,97052.00
2019-01-03T10:40:48.196Z,97051.00
2019-01-03T10:43:18.900Z,97053.00
2019-01-03T10:45:48.943Z,97040.00
2019-01-03T10:48:19.015Z,97044.00
2019-01-03T10:50:49.393Z,97034.00
2019-01-03T10:53:19.355Z,97045.00
2019-01-03T10:55:49.391Z,97038.00
2019-01-03T10:58:19.448Z,97031.00
2019-01-03T11:00:49.534Z,97040.00
2019-01-03T11:03:21.014Z,97018.00
2019-01-03T11:05:51.100Z,97014.00
2019-01-03T11:08:21.102Z,97005.00
2019-01-03T11:10:51.415Z,97003.00
2019-01-03T11:13:21.764Z,96993.00
2019-01-03T11:15:51.864Z,96998.00
2019-01-03T11:18:21.785Z,97000.00
2019-01-03T11:20:52.911Z,97000.00
2019-01-03T11:23:22.913Z,97005.00
2019-01-03T11:25:53.040Z,96993.00
2019-01-03T11:28:23.052Z,96986.00
2019-01-03T11:30:53.067Z,96985.00
2019-01-03T11:33:23.007Z,96972.00
2019-01-03T11:35:52.984Z,96968.00
2019-01-03T11:38:23.071Z,96978.00
2019-01-03T11:40:53.064Z,96974.00
2019-01-03T11:43:23.187Z,96969.00
2019-01-03T11:45:53.487Z,96971.00
2019-01-03T11:48:23.573Z,96961.00
2019-01-03T11:50:53.504Z,96944.00
2019-01-03T11:53:23.911Z,96951.00
2019-01-03T11:55:54.033Z,96946.00
2019-01-03T11:58:25.280Z,96939.00
2019-01-03T12:00:55.640Z,96934.00
2019-01-03T12:03:25.659Z,96912.00
2019-01-03T12:05:55.842Z,96922.00
2019-01-03T12:08:25.759Z,96918.00
2019-01-03T12:10:56.065Z,96919.00
2019-01-03T12:13:26.177Z,96906.00
2019-01-03T12:15:56.309Z,96901.00
2019-01-03T12:18:26.342Z,96914.00
2019-01-03T12:20:56.676Z,96907.00
2019-01-03T12:23:27.356Z,96914.00
2019-01-03T12:25:57.425Z,96910.00
2019-01-03T12:28:27.585Z,96904.00
2019-01-03T12:30:59.357Z,96898.00
2019-01-03T12:33:29.330Z,96906.00
2019-01-03T12:35:59.664Z,96907.00
2019-01-03T12:38:29.720Z,96908.00
2019-01-03T12:40:59.712Z,96908.00
2019-01-03T12:43:29.744Z,96899.00
2019-01-03T12:45:59.778Z,96902.00
2019-01-03T12:48:29.872Z,96907.00
2019-01-03T12:51:00.196Z,96900.00
2019-01-03T12:53:30.131Z,96895.00
2019-01-03T12:56:00.236Z,96902.00
2019-01-03T12:58:30.614Z,96914.00
2019-01-03T13:01:01.143Z,96921.00
2019-01-03T13:03:31.114Z,96931.00
2019-01-03T13:06:01.409Z,96908.00
2019-01-03T13:08:31.379Z,96911.00
2019-01-03T13:11:01.656Z,96910.00
2019-01-03T13:13:31.658Z,96913.00
2019-01-03T13:16:01.674Z,96895.00
2019-01-03T13:18:31.673Z,96900.00
2019-01-03T13:21:01.690Z,96898.00
2019-01-03T13:23:31.760Z,96898.00
2019-01-03T13:26:01.778Z,96916.00
2019-01-03T13:28:31.673Z,96888.00
2019-01-03T13:31:01.620Z,96894.00
2019-01-03T13:33:31.549Z,96902.00
2019-01-03T13:36:01.537Z,96896.00
2019-01-03T13:38:31.606Z,96912.00
2019-01-03T13:41:01.593Z,96893.00
2019-01-03T13:43:31.673Z,96916.00
2019-01-03T13:46:01.658Z,96901.00
2019-01-03T13:48:31.798Z,96897.00
2019-01-03T13:51:01.734Z,96895.00
2019-01-03T13:53:31.893Z,96888.00
2019-01-03T13:56:01.969Z,96902.00
2019-01-03T13:58:31.929Z,96904.00
2019-01-03T14:01:01.957Z,96907.00
2019-01-03T14:03:32.176Z,96908.00
2019-01-03T14:06:02.375Z,96901.00
2019-01-03T14:08:32.480Z,96911.00
2019-01-03T14:11:02.542Z,96918.00
2019-01-03T14:13:32.631Z,96920.00
2019-01-03T14:16:02.743Z,96923.00
2019-01-03T14:18:33.353Z,96929.00
2019-01-03T14:21:03.369Z,96921.00
2019-01-03T14:23:33.406Z,96933.00
2019-01-03T14:26:03.533Z,96927.00
2019-01-03T14:28:33.907Z,96916.00
2019-01-03T14:31:04.281Z,96929.00
2019-01-03T14:33:35.027Z,96922.00
2019-01-03T14:36:05.134Z,96917.00
2019-01-03T14:38:35.131Z,96926.00
2019-01-03T14:41:05.239Z,96922.00
2019-01-03T14:43:35.160Z,96911.00
2019-01-03T14:46:05.307Z,96912.00
2019-01-03T14:48:35.461Z,96911.00
2019-01-03T14:51:05.618Z,96900.00
2019-01-03T14:53:35.617Z,96911.00
2019-01-03T14:56:05.739Z,96912.00
2019-01-03T14:58:35.740Z,96906.00
2019-01-03T15:01:05.865Z,96910.00
2019-01-03T15:03:35.954Z,96912.00
2019-01-03T15:06:06.077Z,96910.00
2019-01-03T15:08:36.161Z,96917.00
2019-01-03T15:11:06.340Z,96919.00
2019-01-03T15:13:36.360Z,96909.00
2019-01-03T15:16:06.518Z,96913.00
2019-01-03T15:18:36.633Z,96901.00
2019-01-03T15:21:07.533Z,96914.00
2019-01-03T15:23:37.637Z,96907.00
2019-01-03T15:26:07.749Z,96907.00
2019-01-03T15:28:37.812Z,96900.00
2019-01-03T15:31:08.042Z,96913.00
2019-01-03T15:33:38.719Z,96924.00
2019-01-03T15:36:08.830Z,96906.00
2019-01-03T15:38:38.784Z,96900.00
2019-01-03T15:41:08.861Z,96903.00
2019-01-03T15:43:38.961Z,96878.00
2019-01-03T15:46:09.037Z,96901.00
2019-01-03T15:48:39.107Z,96881.00
2019-01-03T15:51:09.105Z,96880.00
2019-01-03T15:53:39.180Z,96879.00
2019-01-03T15:56:09.218Z,96880.00
2019-01-03T15:58:39.210Z,96871.00
2019-01-03T16:01:09.230Z,96879.00
2019-01-03T16:03:39.326Z,96876.00
2019-01-03T16:06:10.424Z,96869.00
2019-01-03T16:08:40.499Z,96858.00
2019-01-03T16:11:10.451Z,96869.00
2019-01-03T16:13:40.544Z,96878.00
2019-01-03T16:16:10.577Z,96873.00
2019-01-03T16:18:40.517Z,96881.00
2019-01-03T16:21:10.672Z,96870.00
2019-01-03T16:23:40.720Z,96884.00
2019-01-03T16:26:10.629Z,96899.00
2019-01-03T16:28:40.569Z,96879.00
2019-01-03T16:31:10.638Z,96895.00
2019-01-03T16:33:40.581Z,96874.00
2019-01-03T16:36:10.745Z,96871.00
2019-01-03T16:38:40.784Z,96883.00
2019-01-03T16:41:10.830Z,96877.00
2019-01-03T16:43:41.781Z,96894.00
2019-01-03T16:46:11.772Z,96888.00
2019-01-03T16:48:41.827Z,96891.00
2019-01-03T16:51:11.998Z,96890.00
2019-01-03T16:53:42.156Z,96886.00
2019-01-03T16:56:12.145Z,96882.00
2019-01-03T16:58:42.184Z,96874.00
2019-01-03T17:01:12.206Z,96903.00
2019-01-03T17:03:42.227Z,96895.00
2019-01-03T17:06:12.191Z,96882.00
2019-01-03T17:08:42.306Z,96874.00
2019-01-03T17:11:13.128Z,96875.00
2019-01-03T17:13:43.209Z,96880.00
2019-01-03T17:16:13.267Z,96868.00
2019-01-03T17:18:43.401Z,96871.00
2019-01-03T17:21:13.548Z,96879.00
2019-01-03T17:23:43.594Z,96866.00
2019-01-03T17:26:13.672Z,96872.00
2019-01-03T17:28:43.703Z,96860.00
2019-01-03T17:31:13.786Z,96872.00
2019-01-03T17:33:43.731Z,96858.00
2019-01-03T17:36:13.798Z,96880.00
2019-01-03T17:38:43.811Z,96872.00
2019-01-03T17:41:14.710Z,96877.00
2019-01-03T17:43:44.807Z,96880.00
2019-01-03T17:46:14.962Z,96882.00
2019-01-03T17:48:45.928Z,96887.00
2019-01-03T17:51:16.028Z,96865.00
2019-01-03T17:53:46.054Z,96874.00
2019-01-03T17:56:16.206Z,96879.00
2019-01-03T17:58:46.130Z,96876.00
2019-01-03T18:01:16.240Z,96883.00
2019-01-03T18:03:46.338Z,96891.00
2019-01-03T18:06:16.412Z,96880.00
2019-01-03T18:08:46.425Z,96862.00
2019-01-03T18:11:16.543Z,96872.00
2019-01-03T18:13:48.771Z,96875.00
2019-01-03T18:16:18.985Z,96872.00
2019-01-03T18:18:49.117Z,96872.00
2019-01-03T18:21:19.070Z,96898.00
2019-01-03T18:23:49.185Z,96892.00
2019-01-03T18:26:19.185Z,96890.00
2019-01-03T18:28:49.149Z,96888.00
2019-01-03T18:31:19.191Z,96894.00
2019-01-03T18:33:49.293Z,96894.00
2019-01-03T18:36:19.397Z,96896.00
2019-01-03T18:38:52.824Z,96888.00
2019-01-03T18:41:22.856Z,96891.00
2019-01-03T18:43:52.949Z,96900.00
2019-01-03T18:46:22.944Z,96898.00
2019-01-03T18:48:52.973Z,96898.00
2019-01-03T18:51:22.942Z,96892.00
2019-01-03T18:53:52.955Z,96900.00
2019-01-03T18:56:22.986Z,96895.00
2019-01-03T18:58:53.068Z,96893.00
2019-01-03T19:01:23.170Z,96892.00
2019-01-03T19:03:53.140Z,96884.00
2019-01-03T19:06:24.022Z,96875.00
2019-01-03T19:08:54.945Z,96885.00
2019-01-03T19:11:25.060Z,96883.00
2019-01-03T19:13:55.046Z,96880.00
2019-01-03T19:16:25.061Z,96883.00
2019-01-03T19:18:55.133Z,96894.00
2019-01-03T19:21:25.334Z,96871.00
2019-01-03T19:23:55.542Z,96894.00
2019-01-03T19:26:25.563Z,96887.00
2019-01-03T19:28:55.606Z,96885.00
2019-01-03T19:31:25.632Z,96882.00
2019-01-03T19:33:55.627Z,96887.00
2019-01-03T19:36:25.528Z,96902.00
2019-01-03T19:38:55.570Z,96901.00
2019-01-03T19:41:25.624Z,96906.00
2019-01-03T19:43:55.722Z,96922.00
2019-01-03T19:46:25.773Z,96930.00
2019-01-03T19:48:56.245Z,96922.00
2019-01-03T19:51:26.440Z,96916.00
2019-01-03T19:53:56.554Z,96915.00
2019-01-03T19:56:26.995Z,96927.00
2019-01-03T19:58:56.936Z,96911.00
2019-01-03T20:01:27.006Z,96920.00
2019-01-03T20:03:57.849Z,96914.00
2019-01-03T20:06:28.024Z,96902.00
2019-01-03T20:08:57.970Z,96909.00
2019-01-03T20:11:28.022Z,96904.00
2019-01-03T20:13:58.159Z,96909.00
2019-01-03T20:16:28.253Z,96910.00
2019-01-03T20:18:58.224Z,96922.00
2019-01-03T20:21:29.463Z,96915.00
2019-01-03T20:23:59.566Z,96915.00
2019-01-03T20:26:29.610Z,96901.00
2019-01-03T20:29:00.980Z,96913.00
2019-01-03T20:31:31.163Z,96908.00
2019-01-03T20:34:01.191Z,96920.00
2019-01-03T20:36:31.280Z,96924.00
2019-01-03T20:39:01.356Z,96917.00
2019-01-03T20:41:31.428Z,96930.00
2019-01-03T20:44:01.546Z,96906.00
2019-01-03T20:46:31.655Z,96893.00
2019-01-03T20:49:01.765Z,96894.00
2019-01-03T20:51:31.902Z,96907.00
2019-01-03T20:54:02.014Z,96896.00
2019-01-03T20:56:32.229Z,96913.00
2019-01-03T20:59:02.519Z,96926.00
2019-01-03T21:01:32.808Z,96923.00
2019-01-03T21:04:02.841Z,96908.00
2019-01-03T21:06:32.824Z,96915.00
2019-01-03T21:09:03.673Z,96921.00
2019-01-03T21:11:34.217Z,96926.00
2019-01-03T21:14:04.720Z,96925.00
2019-01-03T21:16:35.001Z,96927.00
2019-01-03T21:19:05.493Z,96930.00
2019-01-03T21:21:36.046Z,96916.00
2019-01-03T21:24:06.143Z,96932.00
2019-01-03T21:26:36.697Z,96930.00
2019-01-03T21:29:06.815Z,96917.00
2019-01-03T21:31:37.005Z,96915.00
2019-01-03T21:34:07.103Z,96904.00
2019-01-03T21:36:37.206Z,96913.00
2019-01-03T21:39:08.809Z,96915.00
2019-01-03T21:41:38.898Z,96912.00
2019-01-03T21:44:08.919Z,96926.00
2019-01-03T21:46:39.024Z,96928.00
2019-01-03T21:49:09.178Z,96933.00
2019-01-03T21:51:39.392Z,96932.00
2019-01-03T21:54:09.490Z,96915.00
2019-01-03T21:56:39.575Z,96924.00
2019-01-03T21:59:09.672Z,96918.00
2019-01-03T22:01:39.740Z,96907.00
2019-01-03T22:04:10.755Z,96932.00
2019-01-03T22:06:40.856Z,96920.00
2019-01-03T22:09:10.872Z,96923.00
2019-01-03T22:11:40.901Z,96930.00
2019-01-03T22:14:11.075Z,96919.00
2019-01-03T22:16:41.220Z,96909.00
2019-01-03T22:19:11.246Z,96920.00
2019-01-03T22:21:41.340Z,96913.00
2019-01-03T22:24:11.441Z,96913.00
2019-01-03T22:26:41.365Z,96907.00
2019-01-03T22:29:11.441Z,96902.00
2019-01-03T22:31:41.444Z,96915.00
2019-01-03T22:34:11.766Z,96920.00
2019-01-03T22:36:42.682Z,96921.00
2019-01-03T22:39:12.837Z,96932.00
2019-01-03T22:41:42.873Z,96923.00
2019-01-03T22:44:12.955Z,96941.00
2019-01-03T22:46:43.068Z,96933.00
2019-01-03T22:49:12.979Z,96923.00
2019-01-03T22:51:42.997Z,96925.00
2019-01-03T22:54:13.092Z,96933.00
2019-01-03T22:56:43.125Z,96926.00
2019-01-03T22:59:13.183Z,96920.00
2019-01-03T23:01:44.277Z,96931.00
2019-01-03T23:04:14.614Z,96933.00
2019-01-03T23:06:44.973Z,96925.00
2019-01-03T23:09:14.998Z,96935.00
2019-01-03T23:11:45.010Z,96926.00
2019-01-03T23:14:14.992Z,96929.00
2019-01-03T23:16:45.096Z,96925.00
2019-01-03T23:19:15.136Z,96927.00
2019-01-03T23:21:45.173Z,96928.00
2019-01-03T23:24:15.216Z,96927.00
2019-01-03T23:26:45.147Z,96939.00
2019-01-03T23:29:15.101Z,96930.00
2019-01-03T23:31:45.203Z,96940.00
2019-01-03T23:34:15.252Z,96943.00
2019-01-03T23:36:45.262Z,96935.00
2019-01-03T23:39:15.270Z,96923.00
2019-01-03T23:41:45.373Z,96937.00
2019-01-03T23:44:15.513Z,96944.00
2019-01-03T23:46:45.994Z,96940.00
2019-01-03T23:49:16.221Z,96934.00
2019-01-03T23:51:46.341Z,96939.00
2019-01-03T23:54:16.923Z,96948.00
2019-01-03T23:56:47.099Z,96931.00
2019-01-03T23:59:17.193Z,96942.00
